Time;durP1;ratioP1;P1;durP2;ratioP2;P2;SDS_P1;SDS_P2;PMS_P1;PMS_P2;Temp;Humidity;BMP_temperature;BMP_pressure;BME280_temperature;BME280_humidity;BME280_pressure;Samples;Min_cycle;Max_cycle;Signal;HPM_P1;HPM_P2
2024/02/13 00:00:30;;;;;;;10.50;7.27;;;;;;;-13.16;100.00;101957.81;5031966;28;20041;-67
2024/02/13 00:02:56;;;;;;;11.83;8.07;;;;;;;-13.20;100.00;101960.34;5034130;28;20044;-68
2024/02/13 00:05:22;;;;;;;12.30;8.03;;;;;;;-13.14;100.00;101984.31;5033415;28;20125;-68
2024/02/13 00:07:48;;;;;;;10.63;7.03;;;;;;;-13.38;100.00;101942.22;5033342;28;20393;-69
2024/02/13 00:10:14;;;;;;;10.35;7.85;;;;;;;-13.30;100.00;101953.41;5033352;28;20469;-67
2024/02/13 00:12:40;;;;;;;14.50;8.90;;;;;;;-13.13;100.00;101977.47;5033182;28;20045;-68
2024/02/13 00:15:14;;;;;;;13.47;8.93;;;;;;;-13.77;100.00;101874.34;5033140;28;20059;-67
2024/02/13 00:17:41;;;;;;;11.07;7.32;;;;;;;-13.21;100.00;101961.22;5031981;28;20477;-66
2024/02/13 00:20:10;;;;;;;11.75;8.15;;;;;;;-13.36;100.00;101927.72;5033681;28;20072;-68
2024/02/13 00:22:36;;;;;;;11.20;8.23;;;;;;;-13.23;100.00;101962.91;5033574;28;20049;-72
2024/02/13 00:25:02;;;;;;;14.87;8.73;;;;;;;-13.15;100.00;101974.03;5032734;28;20133;-69
2024/02/13 00:27:32;;;;;;;10.02;7.63;;;;;;;-13.13;100.00;101982.63;5033255;28;20120;-66
2024/02/13 00:30:00;;;;;;;11.40;7.43;;;;;;;-13.30;100.00;101963.66;5033710;28;20065;-65
2024/02/13 00:32:26;;;;;;;14.85;8.70;;;;;;;-13.22;100.00;101987.69;5035027;28;20030;-67
2024/02/13 00:35:13;;;;;;;9.90;8.02;;;;;;;-13.23;100.00;101980.84;5037726;28;20041;-69
2024/02/13 00:37:39;;;;;;;9.40;7.63;;;;;;;-13.25;100.00;101996.19;5035236;28;20044;-68
2024/02/13 00:40:09;;;;;;;13.57;9.20;;;;;;;-13.33;100.00;101979.00;5035256;28;20026;-69
2024/02/13 00:42:38;;;;;;;10.70;7.68;;;;;;;-13.27;100.00;101997.03;5035216;28;20059;-69
2024/02/13 00:45:06;;;;;;;14.93;9.13;;;;;;;-13.29;100.00;101996.16;5036972;28;20045;-68
2024/02/13 00:47:35;;;;;;;10.93;8.73;;;;;;;-13.47;100.00;101966.03;5033122;28;20286;-66
2024/02/13 00:50:02;;;;;;;12.17;8.00;;;;;;;-13.30;100.00;102002.09;5032722;28;20033;-70
2024/02/13 00:52:30;;;;;;;11.40;9.27;;;;;;;-13.39;100.00;101989.19;5032121;28;20041;-66
2024/02/13 00:54:56;;;;;;;11.33;8.87;;;;;;;-13.44;100.00;101985.72;5032728;28;20037;-68
2024/02/13 00:57:22;;;;;;;11.80;7.78;;;;;;;-13.52;100.00;101973.69;5033807;28;20034;-67
2024/02/13 00:59:48;;;;;;;16.90;8.97;;;;;;;-13.63;100.00;101959.88;5034106;28;20078;-66
2024/02/13 01:02:17;;;;;;;11.60;7.77;;;;;;;-13.53;100.00;101974.53;5032585;28;20508;-68
2024/02/13 01:04:42;;;;;;;13.02;8.40;;;;;;;-13.40;100.00;101995.16;5040595;28;20132;-64
2024/02/13 01:07:08;;;;;;;10.73;6.87;;;;;;;-13.54;100.00;101983.06;5042285;28;20076;-67
2024/02/13 01:09:34;;;;;;;13.93;8.97;;;;;;;-13.42;100.00;102002.81;5037052;28;20056;-63
2024/02/13 01:12:01;;;;;;;14.85;9.45;;;;;;;-13.48;100.00;102000.19;5036476;28;20553;-68
2024/02/13 01:14:27;;;;;;;11.93;8.00;;;;;;;-13.40;100.00;102013.94;5035261;28;20130;-68
2024/02/13 01:16:52;;;;;;;12.33;8.70;;;;;;;-13.43;100.00;102025.88;5036327;28;20061;-66
2024/02/13 01:19:20;;;;;;;16.07;9.73;;;;;;;-13.59;100.00;102015.41;5042757;28;20048;-67
2024/02/13 01:21:49;;;;;;;13.30;8.60;;;;;;;-13.57;100.00;102018.88;5038890;28;20120;-69
2024/02/13 01:24:16;;;;;;;12.27;8.18;;;;;;;-13.67;100.00;102006.78;5037088;28;20385;-64
2024/02/13 01:27:06;;;;;;;11.13;8.35;;;;;;;-13.65;100.00;102006.78;5041654;28;20057;-69
2024/02/13 01:29:36;;;;;;;13.77;9.23;;;;;;;-14.06;100.00;101950.78;5040474;28;20045;-64
2024/02/13 01:32:03;;;;;;;14.98;8.35;;;;;;;-13.67;100.00;102014.47;5043036;28;20079;-69
2024/02/13 01:34:30;;;;;;;11.00;7.35;;;;;;;-13.56;100.00;102023.16;5043618;28;20080;-64
2024/02/13 01:36:59;;;;;;;15.00;9.20;;;;;;;-13.59;100.00;102028.22;5041410;28;20040;-64
2024/02/13 01:39:25;;;;;;;13.90;8.38;;;;;;;-13.88;100.00;101991.13;5034631;28;20386;-72
2024/02/13 01:41:51;;;;;;;13.83;8.63;;;;;;;-13.63;100.00;102028.16;5035414;28;20064;-68
2024/02/13 01:44:17;;;;;;;13.27;9.23;;;;;;;-13.69;100.00;102018.72;5032372;28;20033;-71
2024/02/13 01:46:43;;;;;;;13.47;7.93;;;;;;;-13.81;100.00;102003.19;5030360;28;20060;-68
2024/02/13 01:49:09;;;;;;;12.20;8.85;;;;;;;-13.82;100.00;102009.16;5031650;28;20477;-71
2024/02/13 01:51:37;;;;;;;12.35;9.00;;;;;;;-13.71;100.00;102033.19;5031834;28;20045;-68
2024/02/13 01:54:10;;;;;;;11.85;8.23;;;;;;;-13.71;100.00;102040.88;5031683;28;20127;-70
2024/02/13 01:56:38;;;;;;;10.77;8.73;;;;;;;-13.84;100.00;102023.63;5031860;28;20039;-70
2024/02/13 01:59:04;;;;;;;17.23;8.85;;;;;;;-13.77;100.00;102036.53;5031182;28;20049;-70
2024/02/13 02:01:32;;;;;;;14.68;9.13;;;;;;;-13.92;100.00;101999.59;5031513;28;20025;-68
2024/02/13 02:03:59;;;;;;;11.15;8.80;;;;;;;-13.87;100.00;102016.78;5031603;28;20136;-71
2024/02/13 02:06:26;;;;;;;13.25;8.60;;;;;;;-13.76;100.00;102034.84;5032247;28;20404;-68
2024/02/13 02:08:53;;;;;;;11.85;8.60;;;;;;;-14.21;100.00;101969.34;5031345;28;20481;-71
2024/02/13 02:11:18;;;;;;;12.40;8.43;;;;;;;-14.21;100.00;101989.81;5031359;28;20068;-73
2024/02/13 02:13:46;;;;;;;17.70;8.30;;;;;;;-13.92;100.00;102033.75;5030072;28;20034;-71
2024/02/13 02:16:31;;;;;;;14.35;8.98;;;;;;;-13.95;100.00;102037.97;5031301;28;20036;-67
2024/02/13 02:18:57;;;;;;;14.50;8.47;;;;;;;-14.06;100.00;102039.53;5031448;28;20464;-69
2024/02/13 02:21:27;;;;;;;15.47;10.00;;;;;;;-14.82;100.00;101935.19;5029932;28;20689;-70
2024/02/13 02:23:54;;;;;;;10.82;9.07;;;;;;;-14.05;100.00;102051.50;5031146;28;20076;-71
2024/02/13 02:26:39;;;;;;;14.15;8.02;;;;;;;-14.13;100.00;102044.56;5031172;28;20502;-67
2024/02/13 02:29:18;;;;;;;9.95;7.32;;;;;;;-14.53;100.00;101986.78;5015709;28;20046;-68
2024/02/13 02:31:48;;;;;;;;;;;;;;;-14.04;100.00;102076.25;5031817;28;20029;-70
2024/02/13 02:34:18;;;;;;;15.48;9.25;;;;;;;-14.21;100.00;102061.47;5031141;28;19921;-68
2024/02/13 02:36:44;;;;;;;10.77;7.88;;;;;;;-14.33;100.00;102039.97;5030299;28;20063;-68
2024/02/13 02:39:10;;;;;;;13.98;10.52;;;;;;;-14.32;100.00;102046.78;5031453;28;20044;-72
2024/02/13 02:41:38;;;;;;;10.93;8.90;;;;;;;-14.34;100.00;102069.78;5033809;28;20033;-67
2024/02/13 02:44:04;;;;;;;16.83;8.32;;;;;;;-14.29;100.00;102065.63;5035442;28;20049;-70
2024/02/13 02:46:31;;;;;;;14.15;8.20;;;;;;;-14.34;100.00;102067.25;5034319;28;20040;-69
2024/02/13 02:48:57;;;;;;;18.73;11.82;;;;;;;-14.22;100.00;102095.56;5041775;28;20061;-67
2024/02/13 02:51:22;;;;;;;9.25;7.35;;;;;;;-14.45;100.00;102056.00;5029570;28;20036;-64
2024/02/13 02:53:48;;;;;;;10.87;8.53;;;;;;;-14.34;100.00;102068.94;5026125;28;20041;-66
2024/02/13 02:56:15;;;;;;;11.37;8.53;;;;;;;-14.32;100.00;102082.63;5046749;28;20536;-67
2024/02/13 02:58:42;;;;;;;13.07;9.15;;;;;;;-14.38;100.00;102065.47;5044595;28;20041;-67
2024/02/13 03:01:08;;;;;;;15.18;9.52;;;;;;;-14.31;100.00;102082.63;5045314;28;20044;-63
2024/02/13 03:03:34;;;;;;;8.48;7.30;;;;;;;-14.26;100.00;102103.19;5045141;28;20095;-66
2024/02/13 03:06:05;;;;;;;12.73;9.32;;;;;;;-14.33;100.00;102096.25;5047412;28;20040;-65
2024/02/13 03:08:31;;;;;;;11.55;8.48;;;;;;;-14.32;100.00;102109.06;5044424;28;20075;-64
2024/02/13 03:10:57;;;;;;;14.48;8.55;;;;;;;-14.50;100.00;102078.94;5047311;28;20037;-65
2024/02/13 03:13:22;;;;;;;9.67;8.43;;;;;;;-14.47;100.00;102078.13;5044886;28;20098;-65
2024/02/13 03:15:49;;;;;;;11.70;7.47;;;;;;;-14.35;100.00;102100.47;5045246;28;20033;-66
2024/02/13 03:18:17;;;;;;;13.18;7.78;;;;;;;-14.59;100.00;102058.31;5043971;28;20120;-66
2024/02/13 03:20:44;;;;;;;9.38;6.47;;;;;;;-14.38;100.00;102098.72;5044814;28;20057;-64
2024/02/13 03:23:10;;;;;;;11.73;9.30;;;;;;;-14.40;100.00;102090.16;5039466;28;20048;-69
2024/02/13 03:25:36;;;;;;;11.20;7.97;;;;;;;-14.49;100.00;102080.66;5034445;28;20037;-71
2024/02/13 03:28:22;;;;;;;9.60;8.13;;;;;;;-14.54;100.00;102071.19;5033561;28;20760;-66
2024/02/13 03:30:53;;;;;;;9.20;6.90;;;;;;;-14.49;100.00;102090.88;5034194;28;20042;-67
2024/02/13 03:33:18;;;;;;;10.88;8.20;;;;;;;-14.46;100.00;102106.28;5034944;28;20300;-67
2024/02/13 03:35:44;;;;;;;12.07;8.73;;;;;;;-14.49;100.00;102102.81;5034749;28;20065;-69
2024/02/13 03:38:10;;;;;;;10.40;7.43;;;;;;;-14.47;100.00;102111.38;5034239;28;20033;-70
2024/02/13 03:40:36;;;;;;;13.10;6.20;;;;;;;-14.49;100.00;102110.50;5032782;28;20037;-70
2024/02/13 03:43:02;;;;;;;8.17;6.57;;;;;;;-14.64;100.00;102082.09;5033458;28;20528;-69
2024/02/13 03:45:27;;;;;;;11.73;7.53;;;;;;;-14.50;100.00;102107.06;5034126;28;20543;-69
2024/02/13 03:48:13;;;;;;;9.63;8.65;;;;;;;-14.57;100.00;102112.91;5033107;28;20523;-67
2024/02/13 03:50:40;;;;;;;15.23;8.43;;;;;;;-14.49;100.00;102115.59;5034517;28;20029;-69
2024/02/13 03:53:06;;;;;;;10.27;8.20;;;;;;;-14.55;100.00;102101.00;5032661;28;20128;-69
2024/02/13 03:55:32;;;;;;;12.70;8.23;;;;;;;-14.46;100.00;102115.66;5035091;28;20577;-66
2024/02/13 03:57:57;;;;;;;9.90;7.33;;;;;;;-14.54;100.00;102118.09;5043717;28;20064;-65
2024/02/13 04:00:23;;;;;;;9.67;8.13;;;;;;;-15.08;100.00;102039.53;5043663;28;20075;-68
2024/02/13 04:02:49;;;;;;;9.43;7.40;;;;;;;-14.72;100.00;102103.28;5033983;28;20083;-72
2024/02/13 04:05:15;;;;;;;9.67;8.27;;;;;;;-14.65;100.00;102116.19;5034801;28;20045;-66
2024/02/13 04:07:43;;;;;;;10.25;8.07;;;;;;;-14.72;100.00;102125.44;5034614;28;20045;-68
2024/02/13 04:10:08;;;;;;;14.25;8.60;;;;;;;-14.74;100.00;102130.53;5034569;28;20040;-67
2024/02/13 04:12:47;;;;;;;;;;;;;;;-14.68;100.00;102124.66;5034641;28;20496;-68
2024/02/13 04:15:13;;;;;;;9.93;6.67;;;;;;;-14.75;100.00;102138.13;5032283;28;20023;-70
2024/02/13 04:17:54;;;;;;;9.63;7.82;;;;;;;-14.83;100.00;102135.44;5033357;28;20045;-69
2024/02/13 04:20:21;;;;;;;9.43;7.77;;;;;;;-14.68;100.00;102137.44;5033715;28;20595;-67
2024/02/13 04:22:48;;;;;;;13.18;7.60;;;;;;;-14.82;100.00;102121.81;5033485;28;20045;-69
2024/02/13 04:25:14;;;;;;;10.38;6.85;;;;;;;-14.72;100.00;102128.84;5033128;28;20068;-69
2024/02/13 04:27:39;;;;;;;10.93;6.70;;;;;;;-14.70;100.00;102140.81;5033136;28;20041;-69
2024/02/13 04:30:08;;;;;;;12.07;7.97;;;;;;;-14.75;100.00;102143.25;5033668;28;20409;-67
2024/02/13 04:32:37;;;;;;;7.75;6.85;;;;;;;-14.89;100.00;102130.22;5036741;28;20048;-67
2024/02/13 04:35:07;;;;;;;9.13;6.57;;;;;;;-14.91;100.00;102125.91;5033529;28;20033;-67
2024/02/13 04:37:33;;;;;;;8.35;6.43;;;;;;;-15.27;100.00;102069.81;5033104;28;20264;-68
2024/02/13 04:40:00;;;;;;;10.00;7.90;;;;;;;-14.89;100.00;102145.56;5032614;28;20040;-67
2024/02/13 04:42:33;;;;;;;9.68;7.85;;;;;;;-14.92;100.00;102127.59;5032803;28;20041;-70
2024/02/13 04:44:59;;;;;;;14.65;8.50;;;;;;;-14.83;100.00;102145.66;5031646;28;20440;-69
2024/02/13 04:47:28;;;;;;;8.93;7.90;;;;;;;-15.03;100.00;102111.19;5032604;28;20084;-71
2024/02/13 04:49:58;;;;;;;10.30;6.40;;;;;;;-14.84;100.00;102151.63;5031241;28;20701;-67
2024/02/13 04:52:24;;;;;;;10.20;7.70;;;;;;;-14.95;100.00;102135.22;5032610;28;20041;-68
2024/02/13 04:54:50;;;;;;;10.20;7.67;;;;;;;-15.13;100.00;102106.72;5033021;28;20095;-71
2024/02/13 04:57:17;;;;;;;10.20;7.65;;;;;;;-14.87;100.00;102141.31;5032291;28;20556;-69
2024/02/13 04:59:49;;;;;;;8.10;7.30;;;;;;;-14.98;100.00;102134.28;5030918;28;20033;-68
2024/02/13 05:02:17;;;;;;;13.10;7.70;;;;;;;-14.82;100.00;102167.84;5030393;28;20033;-72
2024/02/13 05:07:31;;;;;;;12.75;8.90;;;;;;;-15.10;100.00;102133.19;5032396;28;20038;-73
2024/02/13 05:09:57;;;;;;;10.37;7.23;;;;;;;-15.09;100.00;102127.25;5032708;28;20165;-71
2024/02/13 05:12:26;;;;;;;11.93;7.82;;;;;;;-14.93;99.18;102148.88;5032380;28;20103;-71
2024/02/13 05:14:55;;;;;;;13.95;8.90;;;;;;;-15.57;98.03;102055.56;5048678;28;20037;-69
2024/02/13 05:17:24;;;;;;;12.98;8.98;;;;;;;-15.06;99.02;102152.88;5051756;28;20447;-69
2024/02/13 05:19:50;;;;;;;15.30;8.75;;;;;;;-15.29;99.31;102112.34;5050339;28;20063;-69
2024/02/13 05:22:16;;;;;;;12.23;8.35;;;;;;;-14.98;99.32;102167.50;5051324;28;20567;-70
2024/02/13 05:24:43;;;;;;;11.70;8.90;;;;;;;-15.09;98.72;102164.72;5050174;28;20037;-66
2024/02/13 05:27:10;;;;;;;12.13;7.85;;;;;;;-15.25;98.24;102155.03;5052474;28;20071;-71
2024/02/13 05:29:41;;;;;;;10.05;8.30;;;;;;;-15.16;98.64;102153.50;5052005;28;20040;-74
2024/02/13 05:32:07;;;;;;;12.20;7.07;;;;;;;-15.49;97.33;102100.00;5041203;28;20029;-67
2024/02/13 05:34:34;;;;;;;16.00;9.23;;;;;;;-15.19;97.47;102170.47;5051178;28;20037;-72
2024/02/13 05:37:01;;;;;;;15.27;8.75;;;;;;;-15.19;97.13;102183.25;5053210;28;20036;-69
2024/02/13 05:39:30;;;;;;;15.88;9.48;;;;;;;-15.20;97.66;102184.09;5049640;28;20045;-71
2024/02/13 05:41:56;;;;;;;10.45;7.85;;;;;;;-15.22;97.05;102165.31;5054036;28;20048;-70
2024/02/13 05:44:22;;;;;;;14.33;8.13;;;;;;;-15.16;96.76;102180.75;5054915;28;20142;-70
2024/02/13 05:46:48;;;;;;;12.05;9.98;;;;;;;-15.34;96.15;102166.75;5057872;28;20480;-71
2024/02/13 05:49:14;;;;;;;11.90;7.83;;;;;;;-15.32;96.69;102153.13;5058302;28;20039;-69
2024/02/13 05:51:42;;;;;;;11.43;7.57;;;;;;;-15.13;95.93;102181.69;5059705;28;20047;-68
2024/02/13 05:54:09;;;;;;;13.95;8.10;;;;;;;-15.15;95.91;102180.78;5054851;28;20037;-66
2024/02/13 05:56:35;;;;;;;9.55;7.20;;;;;;;-15.15;96.16;102169.72;5056574;28;20032;-68
2024/02/13 05:59:05;;;;;;;9.37;6.80;;;;;;;-15.13;94.68;102188.47;5055442;28;20546;-70
2024/02/13 06:01:31;;;;;;;12.10;7.63;;;;;;;-15.26;94.85;102166.94;5056320;28;20078;-71
2024/02/13 06:04:01;;;;;;;8.70;5.77;;;;;;;-15.13;95.09;102185.94;5039676;28;20097;-67
2024/02/13 06:06:28;;;;;;;13.30;7.72;;;;;;;-15.32;94.49;102173.56;5056823;28;20418;-70
2024/02/13 06:08:55;;;;;;;13.90;9.83;;;;;;;-15.30;95.00;102182.16;5037400;28;20102;-71
2024/02/13 06:11:23;;;;;;;11.10;9.35;;;;;;;-15.54;95.32;102151.81;5054574;28;20187;-71
2024/02/13 06:13:49;;;;;;;12.40;8.65;;;;;;;-15.38;94.77;102189.63;5055287;28;20037;-71
2024/02/13 06:16:19;;;;;;;16.37;8.03;;;;;;;-15.59;95.07;102167.06;5055755;28;20473;-70
2024/02/13 06:18:46;;;;;;;12.73;7.70;;;;;;;-15.49;96.16;102175.75;5059481;28;20124;-71
2024/02/13 06:21:14;;;;;;;14.05;7.35;;;;;;;-15.57;95.55;102178.16;5056407;28;20049;-69
2024/02/13 06:23:41;;;;;;;10.68;6.47;;;;;;;-15.54;95.52;102183.31;5038000;28;20053;-70
2024/02/13 06:26:08;;;;;;;14.05;7.30;;;;;;;-15.64;96.07;102170.31;5037455;28;20057;-70
2024/02/13 06:28:34;;;;;;;12.55;6.30;;;;;;;-15.48;95.95;102201.34;5048472;28;20161;-68
2024/02/13 06:31:00;;;;;;;9.48;7.25;;;;;;;-15.49;95.89;102216.63;5056438;28;20400;-68
2024/02/13 06:33:25;;;;;;;9.63;6.60;;;;;;;-15.53;96.17;102209.72;5056647;28;20037;-68
2024/02/13 06:35:51;;;;;;;15.33;7.67;;;;;;;-15.52;96.57;102226.78;5056888;28;20044;-70
2024/02/13 06:38:34;;;;;;;8.90;6.63;;;;;;;-15.64;96.43;102199.28;5053084;28;20071;-70
2024/02/13 06:41:00;;;;;;;9.38;7.65;;;;;;;-15.46;96.43;102227.78;5054547;28;20044;-67
2024/02/13 06:43:26;;;;;;;9.13;7.05;;;;;;;-15.43;96.49;102227.84;5053718;28;20041;-70
2024/02/13 06:45:52;;;;;;;11.67;7.47;;;;;;;-15.43;95.83;102222.75;5053030;28;20033;-71
2024/02/13 06:48:17;;;;;;;8.00;7.10;;;;;;;-15.86;95.71;102153.66;5053595;28;20075;-69
2024/02/13 06:50:43;;;;;;;14.10;7.17;;;;;;;-15.40;96.36;102227.06;5055347;28;20093;-71
2024/02/13 06:53:09;;;;;;;10.60;6.07;;;;;;;-15.42;95.54;102221.91;5055181;28;20488;-71
2024/02/13 06:55:35;;;;;;;9.07;7.33;;;;;;;-15.63;95.54;102175.47;5055636;28;20071;-70
2024/02/13 06:58:13;;;;;;;12.48;7.40;;;;;;;-15.28;96.20;102223.94;5055906;28;20041;-69
2024/02/13 07:00:39;;;;;;;10.25;6.25;;;;;;;-15.47;95.75;102192.00;5056018;28;20040;-72
2024/02/13 07:03:05;;;;;;;8.73;6.65;;;;;;;-15.24;95.51;102230.84;5054507;28;20059;-70
2024/02/13 07:05:32;;;;;;;9.73;6.30;;;;;;;-15.28;94.80;102201.81;5056325;28;20037;-69
2024/02/13 07:07:57;;;;;;;9.25;6.70;;;;;;;-15.28;94.43;102218.81;5056599;28;20759;-68
2024/02/13 07:10:23;;;;;;;14.87;7.67;;;;;;;-15.28;94.52;102229.03;5057339;28;20036;-70
2024/02/13 07:13:09;;;;;;;8.65;6.00;;;;;;;-15.46;93.74;102217.56;5056341;28;20041;-71
2024/02/13 07:15:37;;;;;;;13.03;7.43;;;;;;;-15.47;94.55;102213.28;5055393;28;20113;-70
2024/02/13 07:18:06;;;;;;;9.82;6.80;;;;;;;-15.50;94.05;102209.78;5053195;28;20037;-72
2024/02/13 07:20:32;;;;;;;7.18;6.45;;;;;;;-15.74;95.17;102149.69;5055284;28;20083;-70
2024/02/13 07:22:58;;;;;;;11.68;7.78;;;;;;;-15.24;94.40;102241.91;5058942;28;20055;-71
2024/02/13 07:25:24;;;;;;;12.37;7.50;;;;;;;-15.46;94.20;102219.25;5054758;28;20489;-71
2024/02/13 07:27:50;;;;;;;10.00;6.97;;;;;;;-15.48;93.88;102223.47;5053592;28;20119;-71
2024/02/13 07:30:15;;;;;;;9.23;6.33;;;;;;;-15.34;94.43;102247.63;5054032;28;20040;-70
2024/02/13 07:32:42;;;;;;;9.60;7.78;;;;;;;-15.50;94.80;102215.78;5036761;28;20041;-71
2024/02/13 07:35:09;;;;;;;9.60;5.95;;;;;;;-15.14;95.21;102253.19;5054316;28;20044;-71
2024/02/13 07:37:47;;;;;;;11.43;6.93;;;;;;;-15.13;94.11;102247.25;5054254;28;20166;-67
2024/02/13 07:40:14;;;;;;;8.10;6.40;;;;;;;-15.02;94.05;102263.72;5052946;28;20033;-71
2024/02/13 07:42:40;;;;;;;9.48;7.88;;;;;;;-15.03;94.32;102269.66;5053885;28;20029;-69
2024/02/13 07:45:06;;;;;;;9.90;7.53;;;;;;;-15.07;94.24;102255.06;5053836;28;20040;-67
2024/02/13 07:47:46;;;;;;;11.80;7.78;;;;;;;-14.99;94.28;102274.00;5053936;28;20044;-66
2024/02/13 07:50:14;;;;;;;7.50;6.80;;;;;;;-15.05;93.77;102240.63;5052474;28;20037;-69
2024/02/13 07:52:40;;;;;;;8.32;6.60;;;;;;;-15.08;93.58;102240.56;5036664;28;20116;-68
2024/02/13 07:55:06;;;;;;;13.17;7.40;;;;;;;-14.79;93.81;102270.19;5053654;28;20175;-69
2024/02/13 07:57:34;;;;;;;12.37;7.07;;;;;;;-14.89;92.85;102250.38;5053559;28;20044;-70
2024/02/13 07:59:59;;;;;;;9.27;5.70;;;;;;;-14.93;93.14;102228.13;5053866;28;20041;-72
2024/02/13 08:02:25;;;;;;;11.10;7.80;;;;;;;-14.50;93.71;102239.22;5053763;28;20033;-72
2024/02/13 08:04:51;;;;;;;12.73;7.17;;;;;;;-14.10;92.03;102253.63;5053493;28;20040;-70
2024/02/13 08:07:17;;;;;;;12.60;8.48;;;;;;;-14.14;90.13;102252.72;5051971;28;20040;-70
2024/02/13 08:09:43;;;;;;;15.55;9.25;;;;;;;-14.40;90.57;102228.34;5052292;28;20033;-72
2024/02/13 08:12:09;;;;;;;11.77;8.97;;;;;;;-14.31;90.61;102245.56;5053122;28;20555;-69
2024/02/13 08:14:36;;;;;;;12.98;8.65;;;;;;;-14.23;91.39;102244.84;5052886;28;20060;-69
2024/02/13 08:17:08;;;;;;;22.08;8.82;;;;;;;-14.28;91.91;102238.78;5052585;28;20040;-72
2024/02/13 08:19:40;;;;;;;16.38;9.55;;;;;;;-13.83;90.04;102261.81;5052485;28;20080;-70
2024/02/13 08:22:06;;;;;;;10.10;7.88;;;;;;;-13.56;87.28;102223.00;5052153;28;20064;-71
2024/02/13 08:24:32;;;;;;;11.05;7.68;;;;;;;-13.39;85.84;102237.78;5052841;28;20127;-67
2024/02/13 08:26:58;;;;;;;13.17;8.23;;;;;;;-13.23;85.14;102247.44;5052977;28;20120;-72
2024/02/13 08:29:24;;;;;;;12.27;8.35;;;;;;;-12.77;84.27;102260.84;5052654;28;20147;-72
2024/02/13 08:31:51;;;;;;;12.93;7.50;;;;;;;-12.52;83.27;102260.34;5052062;28;20045;-71
2024/02/13 08:34:18;;;;;;;13.13;7.28;;;;;;;-13.24;82.39;102205.56;5052250;28;20480;-72
2024/02/13 08:36:45;;;;;;;9.57;6.13;;;;;;;-13.48;83.88;102231.66;5051968;28;20103;-73
2024/02/13 08:39:11;;;;;;;9.82;7.57;;;;;;;-13.48;85.65;102247.03;5051523;28;20048;-70
2024/02/13 08:41:36;;;;;;;14.48;9.60;;;;;;;-13.58;86.04;102237.50;5051586;28;20037;-71
2024/02/13 08:44:03;;;;;;;8.07;6.93;;;;;;;-13.38;86.75;102257.44;5052887;28;20087;-71
2024/02/13 08:46:29;;;;;;;8.95;6.75;;;;;;;-13.64;86.67;102214.31;5051037;28;20047;-72
2024/02/13 08:48:55;;;;;;;9.50;7.30;;;;;;;-13.45;86.37;102241.09;5051529;28;20032;-72
2024/02/13 08:51:24;;;;;;;9.85;6.15;;;;;;;-13.38;86.17;102260.00;5052363;28;20035;-71
2024/02/13 08:53:51;;;;;;;9.90;7.68;;;;;;;-13.31;85.93;102259.25;5059110;28;20048;-71
2024/02/13 08:56:16;;;;;;;10.27;7.25;;;;;;;-13.31;86.60;102269.50;5061570;28;20041;-72
2024/02/13 08:58:42;;;;;;;7.70;6.20;;;;;;;-13.29;86.99;102267.84;5058955;28;20033;-71
2024/02/13 09:01:08;;;;;;;11.03;7.20;;;;;;;-13.38;87.42;102221.56;5058454;28;20033;-73
2024/02/13 09:03:34;;;;;;;8.98;6.90;;;;;;;-13.05;85.92;102252.78;5053479;28;20044;-74
2024/02/13 09:06:04;;;;;;;11.07;8.60;;;;;;;-13.02;86.09;102257.94;5051980;28;20508;-73
2024/02/13 09:08:36;;;;;;;10.50;7.13;;;;;;;-13.11;85.42;102245.00;5052221;28;20108;-73
2024/02/13 09:11:03;;;;;;;8.70;6.28;;;;;;;-13.07;85.54;102262.16;5051666;28;20091;-75
2024/02/13 09:13:29;;;;;;;10.00;6.85;;;;;;;-13.27;85.95;102223.47;5051650;28;20032;-71
2024/02/13 09:15:55;;;;;;;11.25;8.63;;;;;;;-13.17;85.95;102242.38;5051621;28;20037;-71
2024/02/13 09:18:22;;;;;;;14.10;8.40;;;;;;;-13.14;86.95;102244.97;5051498;28;20040;-72
2024/02/13 09:20:49;;;;;;;11.35;6.82;;;;;;;-13.06;86.91;102227.97;5051064;28;20102;-73
2024/02/13 09:23:18;;;;;;;10.18;7.00;;;;;;;-13.05;85.77;102226.28;5048623;28;20091;-70
2024/02/13 09:25:59;;;;;;;9.52;6.15;;;;;;;-13.37;85.31;102164.31;5055562;27;20426;-69
2024/02/13 09:28:25;;;;;;;9.65;6.88;;;;;;;-12.73;85.91;102262.63;5051019;28;20037;-72
2024/02/13 09:30:51;;;;;;;12.30;7.32;;;;;;;-12.61;85.36;102265.38;5056688;28;20025;-69
2024/02/13 09:33:21;;;;;;;7.70;5.13;;;;;;;-12.58;84.77;102250.00;5057344;28;20078;-71
2024/02/13 09:35:51;;;;;;;10.07;6.47;;;;;;;-12.45;84.90;102256.13;5062710;28;20404;-74
2024/02/13 09:38:17;;;;;;;10.77;8.10;;;;;;;-12.43;84.81;102241.63;5061533;28;20044;-70
2024/02/13 09:40:43;;;;;;;9.10;7.05;;;;;;;-12.17;84.25;102272.72;5057328;28;20041;-71
2024/02/13 09:43:09;;;;;;;13.37;5.80;;;;;;;-12.03;83.87;102281.47;5052623;28;20567;-71
2024/02/13 09:45:39;;;;;;;9.27;6.30;;;;;;;-12.24;83.44;102251.25;5056577;28;20100;-72
2024/02/13 09:48:21;;;;;;;9.80;7.18;;;;;;;-12.09;83.93;102274.56;5060178;28;20397;-71
2024/02/13 09:50:48;;;;;;;10.75;6.18;;;;;;;-12.35;84.69;102217.78;5057629;28;20041;-71
2024/02/13 09:53:27;;;;;;;10.75;6.32;;;;;;;-12.11;84.62;102252.28;5054650;28;20389;-67
2024/02/13 09:55:53;;;;;;;;;;;;;;;-12.00;84.94;102276.34;5060014;28;20037;-70
2024/02/13 09:58:20;;;;;;;8.77;5.78;;;;;;;-12.09;84.46;102269.44;5054258;28;20058;-70
2024/02/13 10:00:47;;;;;;;10.80;7.00;;;;;;;-12.41;85.26;102225.41;5052931;28;20044;-68
2024/02/13 10:03:13;;;;;;;10.77;7.95;;;;;;;-12.41;85.94;102212.59;5061808;28;20091;-72
2024/02/13 10:05:41;;;;;;;7.53;6.05;;;;;;;-11.86;85.94;102256.78;5052620;28;20041;-73
2024/02/13 10:08:08;;;;;;;9.80;6.15;;;;;;;-11.68;84.10;102251.81;5053110;28;20064;-72
2024/02/13 10:10:34;;;;;;;10.77;7.05;;;;;;;-11.89;83.50;102259.34;5050275;28;20131;-76
2024/02/13 10:13:00;;;;;;;11.98;6.47;;;;;;;-11.92;84.43;102270.44;5056896;28;20058;-71
2024/02/13 10:15:55;;;;;;;9.35;6.03;;;;;;;-11.94;85.74;102276.41;5066290;28;20119;-73
2024/02/13 10:18:24;;;;;;;6.55;5.95;;;;;;;-11.95;86.17;102264.41;5044213;28;20068;-72
2024/02/13 10:20:51;;;;;;;13.27;5.68;;;;;;;-11.87;86.04;102275.63;5041086;28;20055;-71
2024/02/13 10:23:18;;;;;;;13.20;6.63;;;;;;;-11.95;86.50;102274.69;5063084;28;20037;-73
2024/02/13 10:25:46;;;;;;;9.35;7.35;;;;;;;-11.87;86.47;102283.34;5055484;28;20588;-72
2024/02/13 10:28:12;;;;;;;10.70;6.38;;;;;;;-11.75;87.01;102256.88;5054697;28;20079;-73
2024/02/13 10:30:39;;;;;;;8.73;6.00;;;;;;;-11.32;84.87;102294.97;5052532;28;20036;-69
2024/02/13 10:33:08;;;;;;;7.22;5.22;;;;;;;-11.68;84.32;102244.09;5051216;28;20064;-72
2024/02/13 10:35:34;;;;;;;10.80;5.43;;;;;;;-11.52;85.05;102267.38;5035247;28;20084;-74
2024/02/13 10:38:03;;;;;;;9.23;6.13;;;;;;;-11.62;85.36;102262.13;5016163;28;20041;-73
2024/02/13 10:40:30;;;;;;;11.20;5.72;;;;;;;-11.57;86.05;102267.31;5035838;28;20056;-72
2024/02/13 10:42:58;;;;;;;6.75;5.47;;;;;;;-11.85;85.10;102220.00;5037100;28;20512;-72
2024/02/13 10:45:30;;;;;;;8.10;6.18;;;;;;;-11.72;85.99;102255.19;5046479;28;20060;-72
2024/02/13 10:48:23;;;;;;;13.68;7.03;;;;;;;-11.75;86.48;102257.75;5045323;28;20037;-72
2024/02/13 10:50:53;;;;;;;12.35;6.50;;;;;;;-11.44;86.21;102289.72;5038861;28;20041;-72
2024/02/13 10:53:20;;;;;;;10.98;7.07;;;;;;;-11.07;85.81;102295.16;5050367;28;20032;-71
2024/02/13 10:55:50;;;;;;;5.97;5.35;;;;;;;-10.74;83.32;102271.34;5044748;28;20465;-73
2024/02/13 10:58:15;;;;;;;7.63;5.95;;;;;;;-10.03;81.45;102270.78;5041214;28;20128;-70
2024/02/13 11:00:42;;;;;;;8.93;6.00;;;;;;;-9.55;78.82;102259.66;5042072;28;20029;-72
2024/02/13 11:03:08;;;;;;;7.80;5.47;;;;;;;-9.75;74.92;102277.72;5043319;28;20210;-72
2024/02/13 11:05:35;;;;;;;10.30;6.25;;;;;;;-10.38;77.12;102291.31;5043930;28;20068;-72
2024/02/13 11:08:04;;;;;;;6.78;5.85;;;;;;;-10.77;79.21;102284.19;5039560;28;20048;-75
2024/02/13 11:10:34;;;;;;;9.88;6.50;;;;;;;-11.02;80.82;102272.88;5044054;28;20048;-70
2024/02/13 11:13:03;;;;;;;11.20;6.60;;;;;;;-11.08;81.51;102284.00;5041882;28;20454;-71
2024/02/13 11:15:30;;;;;;;9.05;5.10;;;;;;;-11.20;82.76;102285.63;5042251;28;20130;-72